Terminal Aerodrome Forecast
Issued by NWS St Louis, MO

Home | Current Version | Previous Version | Text Only | Print | Product List | Glossary On
Versions: 1 2 3 4 5 6 7 8 9 10 11 12 13 14 15 16 17 18 19 20 21 22 23 24 25 26 27 28
758
FTUS43 KLSX 202331
TAFSTL
TAF
KSTL 202331Z 2100/2206 12007KT P6SM BKN030
     FM210200 17007KT P6SM SCT060
     FM210800 18007KT P6SM FEW250 WS020/22035KT
     FM211400 18009KT P6SM FEW250
     FM211700 20005KT P6SM SCT250
     FM220200 17004KT P6SM BKN070=

USA.gov is the U.S. government's official web portal to all federal, state and local government web resources and services.